Latest Weather Observations for Thevenard Island

IDW60801

Issued at 4:54 pm WST Sunday 24 January 2021 (issued every 10 minutes, with the page automatically refreshed every 10 minutes)

About weather observations | Map of weather stations | Latest weather observations for WA | Other Formats
Station Details ID: 005084 Name: THEVENARD ISLAND Lat: -21.46 Lon: 115.02 Height: 5.0 m
Data from the previous 72 hours. | See also: Recent months at Thevenard Island
Date/Time
WST
Temp
°C
App
Temp
°C
Dew
Point
°C
Rel
Hum
%
Delta-T
°C
Wind Press
QNH
hPa
Press
MSL
hPa
Rain since
9am
mm
Dir  Spd
km/h
Gust
km/h
Spd
kts
Gust
kts
24/04:30pm 30.9 29.2 21.7 58 6.2 W 33 44 18 24 1005.5 1005.5 0.0
24/04:00pm 30.7 29.3 21.2 57 6.4 W 30 41 16 22 1005.6 1005.6 0.0
24/03:30pm 31.1 29.6 21.0 55 6.8 W 30 39 16 21 1005.8 1005.8 0.0
24/03:00pm 31.9 30.1 21.1 52 7.3 W 32 41 17 22 1006.2 1006.2 0.0
24/02:30pm 31.1 29.5 20.7 54 6.9 WSW 30 37 16 20 1006.5 1006.5 0.0
24/02:00pm 31.2 30.1 21.1 55 6.8 WSW 28 35 15 19 1006.7 1006.7 0.0
24/01:30pm 30.7 28.7 20.0 52 7.1 WSW 30 37 16 20 1006.8 1006.8 0.0
24/01:00pm 31.0 29.5 20.3 53 7.1 WSW 28 35 15 19 1007.3 1007.3 0.0
24/12:30pm 31.2 29.8 20.5 53 7.1 SW 28 35 15 19 1007.7 1007.7 0.0
24/12:00pm 30.3 28.9 20.5 55 6.5 WSW 28 37 15 20 1008.1 1008.1 0.0
24/11:30am 30.7 29.9 20.9 56 6.5 WSW 26 35 14 19 1008.5 1008.5 0.0
24/11:00am 30.2 29.2 20.4 55 6.5 SW 26 35 14 19 1008.8 1008.8 0.0
24/10:30am 29.4 28.3 20.3 58 6.0 SW 26 33 14 18 1009.0 1009.0 0.0
24/10:00am 29.4 29.2 20.5 58 5.9 SW 22 30 12 16 1009.1 1009.1 0.0
24/09:30am 28.6 27.4 20.1 60 5.6 SW 26 33 14 18 1009.3 1009.3 0.0
24/09:00am 28.0 27.1 20.6 64 4.9 SSW 26 35 14 19 1009.1 1009.1 0.0
24/08:30am 27.7 26.5 20.8 66 4.6 SSW 28 37 15 20 1009.1 1009.1 0.0
24/08:00am 27.0 25.3 20.6 68 4.2 SSW 30 39 16 21 1009.0 1009.0 0.0
24/07:30am 26.6 24.7 20.9 71 3.8 SSW 32 41 17 22 1008.6 1008.6 0.0
24/07:00am 26.1 24.1 20.7 72 3.6 SSW 32 41 17 22 1008.4 1008.4 0.0
24/06:30am 25.7 23.0 20.5 73 3.4 SSW 35 43 19 23 1008.0 1008.0 0.0
24/06:00am 25.6 23.0 20.6 74 3.3 SSW 35 46 19 25 1007.8 1007.8 0.0
24/05:30am 25.5 22.9 20.7 75 3.1 SSW 35 46 19 25 1007.2 1007.2 0.0
24/05:00am 25.6 23.6 21.1 76 3.0 SSW 33 44 18 24 1006.7 1006.7 0.0
24/04:30am 25.6 23.6 21.1 76 3.0 SSW 33 43 18 23 1006.6 1006.6 0.0
24/04:00am 25.9 23.9 21.8 78 2.7 SSW 35 46 19 25 1006.5 1006.5 0.0
24/03:30am 26.0 23.6 21.9 78 2.7 SSW 37 46 20 25 1006.2 1006.2 0.0
24/03:00am 26.0 24.0 21.9 78 2.7 SSW 35 44 19 24 1006.2 1006.2 0.0
24/02:30am 26.4 24.4 22.5 79 2.6 SW 37 44 20 24 1006.1 1006.1 0.0
24/02:00am 26.6 25.2 22.9 80 2.5 SW 35 44 19 24 1006.1 1006.1 0.0
24/01:30am 26.7 25.3 23.0 80 2.5 SW 35 46 19 25 1006.1 1006.1 0.0
24/01:00am 26.8 25.6 22.6 78 2.8 SW 33 46 18 25 1006.3 1006.3 0.0
24/12:30am 27.1 26.0 22.9 78 2.9 SSW 33 43 18 23 1006.5 1006.5 0.0
24/12:00am 27.5 26.2 23.1 77 3.0 SW 35 43 19 23 1006.7 1006.7 0.0
 
Date/Time
WST
Temp
°C
App
Temp
°C
Dew
Point
°C
Rel
Hum
%
Delta-T
°C
Wind Press
QNH
hPa
Press
MSL
hPa
Rain since
9am
mm
Dir  Spd
km/h
Gust
km/h
Spd
kts
Gust
kts
23/11:30pm 27.7 26.6 22.9 75 3.3 SW 33 44 18 24 1007.0 1007.0 0.0
23/11:00pm 28.2 26.9 23.1 74 3.5 SW 35 44 19 24 1007.2 1007.2 0.0
23/10:30pm 28.4 27.5 23.1 73 3.6 SW 33 43 18 23 1007.2 1007.2 0.0
23/10:00pm 28.6 27.0 23.3 73 3.6 SW 37 46 20 25 1007.1 1007.1 0.0
23/09:30pm 28.9 27.6 23.1 71 4.0 SW 35 46 19 25 1006.9 1006.9 0.0
23/09:00pm 29.1 27.9 22.6 68 4.4 WSW 33 43 18 23 1006.7 1006.7 0.0
23/08:30pm 28.4 28.4 24.4 79 2.8 WSW 32 43 17 23 1006.4 1006.4 0.0
23/08:00pm 28.2 28.1 24.2 79 2.8 WSW 32 44 17 24 1006.3 1006.3 0.0
23/07:30pm 28.3 28.1 24.1 78 2.9 WSW 32 43 17 23 1006.1 1006.1 0.0
23/07:00pm 28.6 28.7 23.9 75 3.3 WSW 30 41 16 22 1005.7 1005.7 0.0
23/06:30pm 29.4 29.7 23.6 71 4.0 W 28 39 15 21 1005.4 1005.4 0.0
23/06:00pm 30.0 29.3 23.2 67 4.7 WSW 32 41 17 22 1005.1 1005.1 0.0
23/05:30pm 30.6 30.6 23.8 67 4.7 W 30 43 16 23 1005.0 1005.0 0.0
23/05:00pm 31.1 30.6 23.5 64 5.3 W 32 44 17 24 1004.7 1004.7 0.0
23/04:30pm 31.2 30.2 23.0 61 5.6 WSW 33 44 18 24 1004.5 1004.5 0.0
23/04:00pm 31.0 29.9 23.4 64 5.3 WSW 35 44 19 24 1004.5 1004.5 0.0
23/03:30pm 30.8 29.9 22.1 59 5.9 W 30 41 16 22 1004.7 1004.7 0.0
23/03:00pm 31.0 30.3 21.8 58 6.2 W 28 37 15 20 1004.8 1004.8 0.0
23/02:30pm 31.4 31.0 22.4 59 6.1 WSW 28 39 15 21 1004.8 1004.8 0.0
23/02:00pm 31.0 30.3 21.8 58 6.2 WSW 28 41 15 22 1005.1 1005.1 0.0
23/01:30pm 31.0 29.2 21.2 56 6.6 WSW 32 43 17 23 1005.2 1005.2 0.0
23/01:00pm 31.1 29.2 21.0 55 6.8 WSW 32 43 17 23 1005.3 1005.3 0.0
23/12:30pm 31.0 29.6 22.0 58 6.1 WSW 32 43 17 23 1005.3 1005.3 0.0
23/12:00pm 30.3 29.1 22.2 62 5.5 WSW 32 39 17 21 1005.4 1005.4 0.0
23/11:30am 29.7 28.8 21.4 61 5.6 WSW 28 37 15 20 1005.7 1005.7 0.0
23/11:00am 29.8 29.7 21.5 61 5.6 WSW 24 35 13 19 1006.1 1006.1 0.0
23/10:30am 29.7 29.4 21.1 60 5.7 SW 24 32 13 17 1006.5 1006.5 0.0
23/10:00am 28.7 28.6 21.5 65 4.8 SW 24 30 13 16 1006.5 1006.5 0.0
23/09:30am 28.3 28.1 21.3 65 4.7 SW 24 33 13 18 1006.2 1006.2 0.0
23/09:00am 27.8 27.2 21.3 67 4.3 SW 26 33 14 18 1006.2 1006.2 0.0
23/08:30am 27.3 27.3 21.6 71 3.8 SW 24 33 13 18 1006.0 1006.0 0.0
23/08:00am 26.5 25.4 21.0 72 3.6 SW 28 35 15 19 1005.9 1005.9 0.0
23/07:30am 26.0 25.6 21.0 74 3.3 SSW 24 32 13 17 1005.8 1005.8 0.0
23/07:00am 25.5 24.5 21.2 77 2.8 SSW 28 37 15 20 1005.4 1005.4 0.0
23/06:30am 25.3 23.5 21.2 78 2.7 SSW 32 41 17 22 1004.9 1004.9 0.0
23/06:00am 25.2 22.8 21.1 78 2.7 SSW 35 43 19 23 1004.4 1004.4 0.0
23/05:30am 25.4 23.0 21.1 77 2.8 SSW 35 44 19 24 1004.2 1004.2 0.0
23/05:00am 25.5 22.8 21.2 77 2.8 SSW 37 46 20 25 1003.8 1003.8 0.0
23/04:30am 25.6 22.2 21.3 77 2.8 SSW 41 48 22 26 1003.4 1003.4 0.0
23/04:00am 25.7 22.9 21.8 79 2.6 SSW 39 50 21 27 1003.1 1003.1 0.0
23/03:30am 26.0 23.2 22.5 81 2.4 SSW 41 50 22 27 1002.9 1002.9 0.0
23/03:00am 26.1 23.3 22.4 80 2.5 SSW 41 50 22 27 1003.0 1003.0 0.0
23/02:30am 26.3 22.6 22.6 80 2.5 SW 46 57 25 31 1003.0 1003.0 0.0
23/02:00am 26.7 23.2 23.0 80 2.5 SW 46 57 25 31 1002.7 1002.7 0.0
23/01:30am 27.0 24.5 23.7 82 2.3 SW 43 56 23 30 1002.8 1002.8 0.0
23/01:00am 27.2 24.9 23.4 80 2.6 SW 41 56 22 30 1003.1 1003.1 0.0
23/12:30am 27.6 25.7 24.0 81 2.5 SW 41 54 22 29 1003.5 1003.5 0.0
23/12:00am 27.9 26.3 23.9 79 2.8 SW 39 50 21 27 1003.8 1003.8 0.0
 
Date/Time
WST
Temp
°C
App
Temp
°C
Dew
Point
°C
Rel
Hum
%
Delta-T
°C
Wind Press
QNH
hPa
Press
MSL
hPa
Rain since
9am
mm
Dir  Spd
km/h
Gust
km/h
Spd
kts
Gust
kts
22/11:30pm 28.0 26.4 24.0 79 2.8 SW 39 52 21 28 1004.1 1004.1 0.0
22/11:00pm 28.2 26.1 23.8 77 3.0 SW 41 54 22 29 1004.0 1004.0 0.0
22/10:30pm 28.7 26.9 24.3 77 3.1 SW 41 52 22 28 1004.3 1004.3 0.0
22/10:00pm 28.9 28.3 24.9 79 2.8 WSW 37 46 20 25 1004.1 1004.1 0.0
22/09:30pm 29.1 27.5 24.0 74 3.5 WSW 39 50 21 27 1003.6 1003.6 0.0
22/09:00pm 29.0 28.3 24.8 78 2.9 WSW 37 52 20 28 1003.3 1003.3 0.0
22/08:30pm 29.1 28.5 24.9 78 2.9 WSW 37 48 20 26 1003.0 1003.0 0.0
22/08:00pm 29.0 28.2 25.2 80 2.7 WSW 39 48 21 26 1002.6 1002.6 0.0
22/07:30pm 28.9 28.5 24.7 78 2.9 WSW 35 48 19 26 1002.4 1002.4 0.0
22/07:15pm 29.1 28.7 24.7 77 3.1 WSW 35 54 19 29 1002.4 1002.4 0.0
22/07:00pm 29.2 28.7 24.5 76 3.3 W 35 46 19 25 1002.2 1002.2 0.0
22/06:30pm 29.7 29.2 23.9 71 4.0 W 33 50 18 27 1001.8 1001.8 0.0
22/06:00pm 30.2 29.3 23.9 69 4.4 W 35 50 19 27 1001.6 1001.6 0.0
22/05:30pm 31.0 30.6 24.1 66 4.8 W 33 44 18 24 1001.8 1001.8 0.0
22/05:00pm 31.2 29.8 23.6 64 5.3 W 37 50 20 27 1001.9 1001.9 0.0
22/04:30pm 31.8 31.1 24.1 63 5.4 W 35 46 19 25 1001.8 1001.8 0.0
22/04:00pm 32.0 31.2 23.3 60 6.0 W 33 44 18 24 1001.7 1001.7 0.0
22/03:30pm 32.4 31.6 23.4 59 6.2 W 33 43 18 23 1002.2 1002.2 0.0
22/03:00pm 33.1 31.9 21.6 51 7.8 WNW 30 39 16 21 1002.7 1002.7 0.0
22/02:30pm 33.4 31.7 20.5 46 8.6 W 30 41 16 22 1003.2 1003.2 0.0
22/02:00pm 34.0 32.4 20.0 43 9.3 WSW 28 35 15 19 1003.5 1003.5 0.0
22/01:30pm 32.9 32.9 22.4 54 7.2 W 26 35 14 19 1003.9 1003.9 0.0
22/01:00pm 33.2 34.0 23.2 55 6.9 WSW 24 32 13 17 1004.4 1004.4 0.0
22/12:30pm 32.4 33.8 23.6 59 6.1 WSW 22 28 12 15 1004.7 1004.7 0.0
22/12:00pm 31.9 33.7 23.2 60 6.0 WSW 19 26 10 14 1004.9 1004.9 0.0
22/11:30am 31.6 33.8 24.0 64 5.3 WSW 19 26 10 14 1005.1 1005.1 0.0
22/11:00am 30.8 32.9 23.7 66 4.9 SW 19 26 10 14 1005.6 1005.6 0.0
22/10:30am 30.4 32.2 23.6 67 4.7 SW 20 26 11 14 1005.7 1005.7 0.0
22/10:00am 29.7 31.4 23.4 69 4.3 SW 20 28 11 15 1006.0 1006.0 0.0
22/09:30am 29.2 30.9 23.4 71 4.0 SSW 20 28 11 15 1006.1 1006.1 0.0
22/09:00am 28.8 30.3 23.0 71 4.0 SSW 20 28 11 15 1006.2 1006.2 0.0
22/08:30am 29.0 30.3 23.4 72 3.8 SSW 22 28 12 15 1006.2 1006.2 0.0
22/08:00am 28.1 29.7 23.9 78 2.9 SW 22 30 12 16 1005.9 1005.9 0.0
22/07:30am 27.7 28.6 23.9 80 2.6 SW 26 33 14 18 1005.8 1005.8 0.0
22/07:00am 28.0 29.0 24.2 80 2.6 SW 26 35 14 19 1005.6 1005.6 0.0
22/06:30am 28.0 29.3 24.0 79 2.8 SW 24 32 13 17 1005.5 1005.5 0.0
22/06:00am 28.3 29.5 25.7 86 1.8 SW 30 37 16 20 1005.0 1005.0 0.0
22/05:30am 28.3 29.8 24.9 82 2.4 SW 26 35 14 19 1004.9 1004.9 0.0
22/05:00am 28.5 30.5 25.1 82 2.4 SW 24 30 13 16 1004.9 1004.9 0.0
22/04:30am 28.6 30.4 24.8 80 2.7 SW 24 30 13 16 1004.4 1004.4 0.0
22/04:00am 28.9 31.1 24.2 76 3.3 WSW 20 28 11 15 1004.1 1004.1 0.0
22/03:30am 28.9 33.0 26.3 86 1.9 W 17 20 9 11 1004.2 1004.2 0.0
22/03:00am 29.0 33.5 26.4 86 1.9 WNW 15 20 8 11 1004.1 1004.1 0.0
22/02:30am 29.1 33.5 26.3 85 2.0 WNW 15 20 8 11 1004.2 1004.2 0.0
22/02:00am 29.3 33.4 25.7 81 2.6 NW 15 19 8 10 1004.4 1004.4 0.0
22/01:30am 29.5 33.0 25.5 79 2.8 NNW 17 24 9 13 1004.7 1004.7 0.0
22/01:00am 29.8 32.5 25.1 76 3.3 NNW 20 28 11 15 1004.9 1004.9 0.0
22/12:30am 30.1 32.2 24.7 73 3.8 NNW 22 28 12 15 1005.1 1005.1 0.0
22/12:00am 30.1 31.8 24.7 73 3.8 N 24 32 13 17 1005.3 1005.3 0.0
 
Date/Time
WST
Temp
°C
App
Temp
°C
Dew
Point
°C
Rel
Hum
%
Delta-T
°C
Wind Press
QNH
hPa
Press
MSL
hPa
Rain since
9am
mm
Dir  Spd
km/h
Gust
km/h
Spd
kts
Gust
kts
21/11:30pm 30.4 30.5 23.3 66 4.9 NNE 28 33 15 18 1005.3 1005.3 0.0
21/11:00pm 30.3 31.6 24.7 72 3.9 NE 26 35 14 19 1005.8 1005.8 0.0
21/10:30pm 30.4 30.8 23.1 65 5.0 NE 26 37 14 20 1006.0 1006.0 0.0
21/10:00pm 30.7 30.5 23.4 65 5.0 NE 30 43 16 23 1005.9 1005.9 0.0
21/09:30pm 30.8 34.8 25.6 74 3.7 NE 15 30 8 16 1006.4 1006.4 0.0
21/09:00pm 31.1 34.9 25.9 74 3.7 ENE 17 22 9 12 1006.2 1006.2 0.0
21/08:30pm 31.2 36.3 25.5 71 4.0 NE 9 17 5 9 1006.0 1006.0 0.0
21/08:00pm 31.0 35.7 23.9 66 4.9 W 6 13 3 7 1005.1 1005.1 0.0
21/07:30pm 31.2 34.5 23.8 64 5.1 WNW 13 17 7 9 1004.3 1004.3 0.0
21/07:00pm 31.5 34.7 24.9 68 4.7 WNW 17 20 9 11 1004.2 1004.2 0.0
21/06:30pm 32.5 35.0 24.5 62 5.6 WNW 19 28 10 15 1003.7 1003.7 0.0
21/06:00pm 33.6 35.4 24.8 60 6.2 W 24 35 13 19 1002.8 1002.8 0.0
21/05:30pm 33.2 34.2 24.7 61 6.0 W 28 39 15 21 1002.4 1002.4 0.0
21/05:00pm 33.4 34.0 24.8 60 6.1 W 30 43 16 23 1002.3 1002.3 0.0

Other formats

Comma delimited format used in spreadsheet applications
http://www.bom.gov.au/fwo/IDW60801/IDW60801.94303.axf

JavaScript Object Notation format (JSON) in row-major order
http://www.bom.gov.au/fwo/IDW60801/IDW60801.94303.json

Data quality

Most of these data are generated automatically and are frequently updated. Quality checks on data are not normally performed. It is possible for incorrect values to appear. Refer to information at About Latest Weather Observations and please check the disclaimer before using these data.